Time;durP1;ratioP1;P1;durP2;ratioP2;P2;SDS_P1;SDS_P2;PMS_P1;PMS_P2;Temp;Humidity;BMP_temperature;BMP_pressure;BME280_temperature;BME280_humidity;BME280_pressure;Samples;Min_cycle;Max_cycle;Signal;HPM_P1;HPM_P2
2021/08/29 00:02:22;;;;;;;3.73;3.43;;;;;;;14.21;85.40;96848.63;5013711;28;20211;-61
2021/08/29 00:04:48;;;;;;;3.97;3.67;;;;;;;14.19;85.54;96842.81;5012574;28;20574;-61
2021/08/29 00:07:13;;;;;;;3.70;3.30;;;;;;;14.16;85.59;96842.25;5012797;28;20262;-61
2021/08/29 00:09:39;;;;;;;3.97;3.67;;;;;;;14.08;86.18;96841.91;5012792;28;20183;-63
2021/08/29 00:12:04;;;;;;;4.87;3.63;;;;;;;14.06;86.14;96843.97;5013510;28;20242;-61
2021/08/29 00:14:30;;;;;;;4.00;3.70;;;;;;;13.93;87.13;96845.13;5012538;28;20179;-61
2021/08/29 00:16:55;;;;;;;3.87;3.57;;;;;;;14.04;86.63;96835.53;5012152;28;20222;-61
2021/08/29 00:19:20;;;;;;;3.60;3.30;;;;;;;14.01;86.59;96834.19;5013416;28;20216;-61
2021/08/29 00:21:46;;;;;;;3.70;3.40;;;;;;;14.12;86.24;96838.50;5012410;28;20255;-61
2021/08/29 00:24:12;;;;;;;3.50;3.20;;;;;;;14.05;86.46;96834.47;5044926;28;20184;-61
2021/08/29 00:26:37;;;;;;;3.50;3.20;;;;;;;14.05;86.73;96839.75;5012006;28;20233;-62
2021/08/29 00:29:03;;;;;;;4.33;3.43;;;;;;;14.04;86.73;96836.31;5011890;28;20243;-61
2021/08/29 00:31:29;;;;;;;3.40;3.10;;;;;;;14.08;86.63;96839.25;5012346;28;20242;-66
2021/08/29 00:33:54;;;;;;;4.20;3.33;;;;;;;14.12;86.22;96835.06;5012978;28;20629;-61
2021/08/29 00:36:19;;;;;;;3.80;3.50;;;;;;;14.21;85.95;96838.09;5011689;28;20567;-61
2021/08/29 00:38:45;;;;;;;4.10;3.70;;;;;;;14.17;85.97;96837.75;5012343;28;20199;-61
2021/08/29 00:41:10;;;;;;;3.80;3.50;;;;;;;14.25;85.34;96836.53;5012575;28;20591;-62
2021/08/29 00:43:36;;;;;;;3.70;3.40;;;;;;;14.22;85.74;96835.19;5023349;28;20190;-61
2021/08/29 00:46:02;;;;;;;3.50;3.27;;;;;;;14.08;86.30;96836.63;5032514;28;20183;-62
2021/08/29 00:48:27;;;;;;;3.83;3.53;;;;;;;14.30;85.36;96828.69;5031902;28;20262;-66
2021/08/29 00:50:53;;;;;;;3.80;3.50;;;;;;;14.37;84.91;96840.66;5032084;28;20191;-61
2021/08/29 00:53:20;;;;;;;3.83;3.53;;;;;;;14.43;84.66;96836.22;5032516;28;20218;-61
2021/08/29 00:55:47;;;;;;;3.63;3.20;;;;;;;14.41;84.93;96831.19;5031110;28;20194;-63
2021/08/29 00:58:12;;;;;;;4.23;3.50;;;;;;;14.42;84.96;96832.00;5031964;28;20202;-61
2021/08/29 01:00:41;;;;;;;4.90;3.80;;;;;;;14.49;84.42;96825.47;5031644;28;20611;-61
2021/08/29 01:03:14;;;;;;;4.27;3.60;;;;;;;14.40;84.78;96826.97;5064457;28;20564;-61
2021/08/29 01:06:14;;;;;;;5.30;3.73;;;;;;;14.42;84.77;96824.09;5030928;28;20192;-61
2021/08/29 01:08:41;;;;;;;3.90;3.60;;;;;;;14.35;85.04;96826.09;5031437;28;20201;-61
2021/08/29 01:11:26;;;;;;;4.43;4.03;;;;;;;14.36;85.30;96825.06;5032280;28;20336;-61
2021/08/29 01:13:58;;;;;;;3.80;3.50;;;;;;;14.40;85.11;96831.44;5031487;28;20644;-61
2021/08/29 01:16:28;;;;;;;3.60;3.30;;;;;;;14.28;85.93;96821.00;5032039;28;20175;-61
2021/08/29 01:18:56;;;;;;;4.23;3.57;;;;;;;14.25;86.61;96810.97;5031778;28;20328;-61
2021/08/29 01:21:25;;;;;;;4.30;3.53;;;;;;;14.24;87.04;96814.66;5031872;28;20186;-60
2021/08/29 01:23:56;;;;;;;3.77;3.20;;;;;;;14.19;87.54;96811.97;5030090;28;20175;-61
2021/08/29 01:26:32;;;;;;;3.30;3.00;;;;;;;14.06;88.54;96815.78;5031745;28;20167;-61
2021/08/29 01:29:02;;;;;;;6.43;3.30;;;;;;;14.03;89.34;96813.66;5031636;28;20162;-61
2021/08/29 01:31:30;;;;;;;3.30;3.00;;;;;;;14.07;89.53;96812.09;5031266;28;20187;-65
2021/08/29 01:34:03;;;;;;;3.83;3.50;;;;;;;14.05;90.10;96819.44;5031694;28;20181;-61
2021/08/29 01:36:31;;;;;;;3.53;3.23;;;;;;;13.90;91.40;96813.22;5030597;28;20187;-65
2021/08/29 01:38:59;;;;;;;3.50;3.20;;;;;;;13.89;91.54;96807.16;5031446;28;20270;-61
2021/08/29 01:41:25;;;;;;;4.10;3.30;;;;;;;13.94;91.22;96807.22;5031689;28;20309;-61
2021/08/29 01:43:51;;;;;;;3.63;3.20;;;;;;;13.79;92.88;96803.59;5011509;28;20284;-61
2021/08/29 01:46:18;;;;;;;4.13;3.73;;;;;;;13.82;92.70;96800.50;5011878;28;20187;-60
2021/08/29 01:48:45;;;;;;;3.50;3.17;;;;;;;13.79;92.66;96799.13;5042920;28;20266;-61
2021/08/29 01:51:11;;;;;;;4.13;3.63;;;;;;;13.89;92.32;96795.81;5012012;28;20183;-61
2021/08/29 01:53:37;;;;;;;4.93;3.70;;;;;;;13.87;92.34;96793.44;5010826;28;20182;-60
2021/08/29 01:56:04;;;;;;;3.60;3.27;;;;;;;13.68;94.05;96789.53;5011723;28;20241;-61
2021/08/29 01:58:29;;;;;;;4.00;3.33;;;;;;;13.73;93.80;96782.47;5010817;28;20195;-66
2021/08/29 02:01:00;;;;;;;4.93;3.97;;;;;;;13.74;94.00;96784.06;5011540;28;20182;-61
2021/08/29 02:03:27;;;;;;;6.27;3.83;;;;;;;13.70;95.18;96780.34;5011365;28;20210;-65
2021/08/29 02:06:05;;;;;;;4.20;3.57;;;;;;;13.66;95.06;96786.34;5010578;28;20194;-61
2021/08/29 02:08:31;;;;;;;5.50;4.00;;;;;;;13.73;94.59;96784.31;5011290;28;20175;-63
2021/08/29 02:10:59;;;;;;;4.03;3.60;;;;;;;13.87;93.71;96788.19;5011708;28;20197;-61
2021/08/29 02:13:27;;;;;;;3.97;3.57;;;;;;;13.71;94.84;96781.91;5011828;28;20230;-60
2021/08/29 02:15:59;;;;;;;4.63;3.67;;;;;;;13.75;94.70;96779.59;5010867;28;20195;-61
2021/08/29 02:18:27;;;;;;;4.67;3.70;;;;;;;13.65;95.77;96782.91;5011621;28;20219;-61
2021/08/29 02:20:53;;;;;;;4.30;3.90;;;;;;;13.72;95.67;96785.34;5010770;28;20180;-61
2021/08/29 02:23:23;;;;;;;4.77;3.53;;;;;;;13.69;95.89;96786.66;5011482;28;20990;-61
2021/08/29 02:25:49;;;;;;;3.67;3.33;;;;;;;13.75;96.00;96769.06;5010571;28;20284;-61
2021/08/29 02:28:15;;;;;;;4.17;3.77;;;;;;;13.79;95.57;96775.44;5011630;28;20286;-61
2021/08/29 02:30:42;;;;;;;4.93;3.57;;;;;;;13.77;95.87;96776.72;5010798;28;20270;-61
2021/08/29 02:33:09;;;;;;;4.70;3.70;;;;;;;13.80;95.99;96773.59;5011347;28;20183;-61
2021/08/29 02:35:37;;;;;;;5.43;4.03;;;;;;;13.78;97.16;96773.03;5010296;28;20195;-61
2021/08/29 02:38:04;;;;;;;5.20;3.90;;;;;;;13.76;96.58;96775.13;5011219;28;20675;-62
2021/08/29 02:40:36;;;;;;;4.10;3.70;;;;;;;13.73;97.22;96773.78;5010573;28;20242;-66
2021/08/29 02:43:02;;;;;;;3.70;3.40;;;;;;;13.81;96.82;96778.63;5025758;28;20199;-61
2021/08/29 02:45:28;;;;;;;3.80;3.50;;;;;;;13.82;97.52;96784.69;5029632;28;20170;-66
2021/08/29 02:47:53;;;;;;;4.03;3.70;;;;;;;13.78;97.58;96787.00;5032884;28;20187;-61
2021/08/29 02:50:20;;;;;;;5.03;3.70;;;;;;;13.67;98.40;96786.09;5034842;28;20244;-61
2021/08/29 02:52:46;;;;;;;3.97;3.57;;;;;;;13.76;98.41;96783.03;5034298;28;20185;-61
2021/08/29 02:55:14;;;;;;;6.03;4.40;;;;;;;13.85;98.29;96779.72;5034552;28;20245;-61
2021/08/29 02:57:40;;;;;;;4.20;3.80;;;;;;;13.95;97.76;96786.94;5034011;28;20223;-61
2021/08/29 03:00:10;;;;;;;4.60;4.17;;;;;;;13.87;98.31;96785.53;5035057;28;20195;-61
2021/08/29 03:02:35;;;;;;;4.83;4.27;;;;;;;13.76;98.73;96775.94;5033830;28;20670;-61
2021/08/29 03:05:01;;;;;;;4.53;3.93;;;;;;;13.73;98.49;96779.06;5034482;28;20182;-62
2021/08/29 03:07:27;;;;;;;4.73;4.30;;;;;;;13.65;99.65;96774.22;5034267;28;20261;-65
2021/08/29 03:09:52;;;;;;;5.67;4.37;;;;;;;13.73;100.00;96773.78;5033621;28;20179;-61
2021/08/29 03:12:19;;;;;;;6.63;4.30;;;;;;;13.80;99.82;96774.41;5034409;28;20742;-61
2021/08/29 03:14:45;;;;;;;5.47;4.30;;;;;;;13.78;100.00;96773.84;5033594;28;20174;-61
2021/08/29 03:17:11;;;;;;;4.20;3.80;;;;;;;13.76;100.00;96767.25;5034491;28;20560;-61
2021/08/29 03:19:38;;;;;;;4.50;3.90;;;;;;;13.76;100.00;96764.59;5033308;28;20214;-61
2021/08/29 03:22:04;;;;;;;5.27;4.23;;;;;;;13.80;100.00;96761.22;5033243;28;20175;-61
2021/08/29 03:24:30;;;;;;;6.17;4.73;;;;;;;13.68;100.00;96764.00;5033611;28;20495;-65
2021/08/29 03:26:55;;;;;;;5.90;4.60;;;;;;;13.74;100.00;96759.56;5033940;28;20186;-60
2021/08/29 03:29:21;;;;;;;5.70;4.67;;;;;;;13.78;100.00;96762.50;5034397;28;20178;-61
2021/08/29 03:31:46;;;;;;;5.77;4.80;;;;;;;13.74;100.00;96760.38;5033675;28;20170;-60
2021/08/29 03:34:16;;;;;;;7.37;5.13;;;;;;;13.70;100.00;96764.53;5033816;28;20186;-61
2021/08/29 03:36:43;;;;;;;5.80;4.57;;;;;;;13.71;100.00;96765.31;5033623;28;20174;-61
2021/08/29 03:39:13;;;;;;;5.03;4.53;;;;;;;13.61;100.00;96763.38;5033833;28;20652;-64
2021/08/29 03:41:40;;;;;;;5.27;4.37;;;;;;;13.58;100.00;96768.34;5024969;28;20594;-61
2021/08/29 03:44:11;;;;;;;5.63;4.40;;;;;;;13.54;100.00;96761.97;5014487;28;20179;-61
2021/08/29 03:46:37;;;;;;;6.13;4.30;;;;;;;13.48;100.00;96763.75;5013373;28;20176;-61
2021/08/29 03:49:03;;;;;;;10.77;4.77;;;;;;;13.53;100.00;96768.28;5013920;28;20179;-61
2021/08/29 03:51:29;;;;;;;5.67;4.77;;;;;;;13.65;99.74;96761.84;5013675;28;20263;-66
2021/08/29 03:53:55;;;;;;;6.60;4.70;;;;;;;13.61;100.00;96762.56;5013508;28;20222;-62
2021/08/29 03:56:21;;;;;;;5.57;4.60;;;;;;;13.42;100.00;96763.94;5013632;28;20188;-61
2021/08/29 03:58:47;;;;;;;5.23;4.57;;;;;;;13.42;100.00;96756.84;5012711;28;20287;-61
2021/08/29 04:01:12;;;;;;;5.63;5.03;;;;;;;13.48;100.00;96749.78;5014204;28;20270;-60
2021/08/29 04:03:38;;;;;;;7.43;4.73;;;;;;;13.45;100.00;96753.69;5013220;28;20179;-61
2021/08/29 04:06:04;;;;;;;5.60;4.77;;;;;;;13.50;100.00;96752.97;5012726;28;20270;-63
2021/08/29 04:08:45;;;;;;;6.23;5.07;;;;;;;13.48;100.00;96749.78;5013445;28;20182;-66
2021/08/29 04:11:11;;;;;;;5.73;4.80;;;;;;;13.50;100.00;96753.75;5013888;28;20187;-60
2021/08/29 04:13:37;;;;;;;6.30;5.20;;;;;;;13.45;100.00;96748.44;5012711;28;20187;-61
2021/08/29 04:16:04;;;;;;;5.77;5.17;;;;;;;13.36;100.00;96752.56;5013296;28;20656;-61
2021/08/29 04:18:36;;;;;;;6.60;5.07;;;;;;;13.49;100.00;96748.72;5013268;28;20195;-66
2021/08/29 04:21:02;;;;;;;6.57;5.07;;;;;;;13.30;100.00;96753.53;5013489;28;20168;-62
2021/08/29 04:23:28;;;;;;;5.83;4.93;;;;;;;13.37;100.00;96748.09;5013465;28;20201;-60
2021/08/29 04:25:53;;;;;;;6.37;5.27;;;;;;;13.23;100.00;96745.00;5011275;28;20245;-61
2021/08/29 04:28:19;;;;;;;9.97;6.20;;;;;;;13.23;100.00;96747.63;5013182;28;20180;-60
2021/08/29 04:30:45;;;;;;;6.37;4.90;;;;;;;13.25;100.00;96749.00;5012300;28;20644;-60
2021/08/29 04:33:10;;;;;;;5.77;5.17;;;;;;;13.25;100.00;96748.19;5012937;28;20186;-61
2021/08/29 04:35:36;;;;;;;5.97;4.63;;;;;;;13.26;100.00;96745.28;5012019;28;20179;-61
2021/08/29 04:38:02;;;;;;;6.90;5.33;;;;;;;13.30;100.00;96745.63;5013099;28;20719;-60
2021/08/29 04:40:27;;;;;;;6.97;4.70;;;;;;;13.30;100.00;96745.63;5014576;28;20186;-60
2021/08/29 04:42:52;;;;;;;7.53;5.30;;;;;;;13.10;100.00;96748.75;5032331;28;20292;-60
2021/08/29 04:45:18;;;;;;;8.80;4.80;;;;;;;12.99;100.00;96733.84;5032560;28;20221;-61
2021/08/29 04:47:43;;;;;;;8.30;5.03;;;;;;;12.91;100.00;96731.66;5030730;28;20191;-60
2021/08/29 04:50:09;;;;;;;5.37;4.63;;;;;;;12.86;100.00;96727.13;5032414;28;20646;-63
2021/08/29 04:52:34;;;;;;;6.40;5.57;;;;;;;12.84;100.00;96728.41;5031971;28;20208;-62
2021/08/29 04:55:00;;;;;;;6.07;5.17;;;;;;;12.81;100.00;96732.31;5032605;28;20182;-60
2021/08/29 04:57:25;;;;;;;5.63;5.03;;;;;;;12.91;100.00;96729.03;5032559;28;20175;-61
2021/08/29 04:59:51;;;;;;;6.80;5.13;;;;;;;12.87;100.00;96733.19;5031518;28;20174;-60
2021/08/29 05:02:16;;;;;;;5.80;5.10;;;;;;;12.90;100.00;96730.84;5032767;28;20533;-60
2021/08/29 05:04:41;;;;;;;8.37;5.57;;;;;;;12.83;100.00;96735.50;5031438;28;20178;-61
2021/08/29 05:07:07;;;;;;;8.97;6.50;;;;;;;12.91;100.00;96731.66;5031921;28;20183;-60
2021/08/29 05:09:32;;;;;;;6.37;5.03;;;;;;;13.11;100.00;96731.13;5032218;28;20572;-66
2021/08/29 05:11:57;;;;;;;8.50;5.23;;;;;;;13.00;100.00;96735.47;5031316;28;20539;-60
2021/08/29 05:14:23;;;;;;;6.77;6.07;;;;;;;13.01;100.00;96731.00;5032170;28;20210;-60
2021/08/29 05:16:48;;;;;;;6.10;5.50;;;;;;;12.94;100.00;96728.53;5031443;28;20166;-60
2021/08/29 05:19:13;;;;;;;7.03;6.10;;;;;;;12.95;100.00;96729.34;5032004;28;20206;-63
2021/08/29 05:21:39;;;;;;;6.70;5.23;;;;;;;12.97;100.00;96729.91;5031399;28;20183;-60
2021/08/29 05:24:05;;;;;;;7.07;5.83;;;;;;;13.04;100.00;96730.53;5031906;28;20179;-60
2021/08/29 05:26:30;;;;;;;6.60;5.90;;;;;;;13.23;100.00;96729.22;5031877;28;20260;-66
2021/08/29 05:28:56;;;;;;;6.30;5.40;;;;;;;13.02;100.00;96717.59;5031184;28;20206;-60
2021/08/29 05:31:21;;;;;;;5.83;5.33;;;;;;;12.99;100.00;96722.53;5031833;28;20587;-60
2021/08/29 05:33:46;;;;;;;6.23;5.23;;;;;;;12.96;100.00;96717.78;5029661;28;20233;-60
2021/08/29 05:36:12;;;;;;;6.70;5.77;;;;;;;13.08;100.00;96729.78;5031793;28;20683;-59
2021/08/29 05:38:37;;;;;;;5.77;5.27;;;;;;;13.11;100.00;96733.75;5029658;28;20203;-60
2021/08/29 05:41:03;;;;;;;7.03;5.13;;;;;;;13.00;100.00;96721.50;5020466;28;20223;-60
2021/08/29 05:43:28;;;;;;;7.27;5.23;;;;;;;12.85;100.00;96724.72;5012461;28;20164;-60
2021/08/29 05:45:54;;;;;;;6.07;5.23;;;;;;;12.96;100.00;96723.84;5011258;28;20714;-61
2021/08/29 05:48:19;;;;;;;6.00;4.87;;;;;;;12.93;100.00;96725.09;5012314;28;20190;-60
2021/08/29 05:50:44;;;;;;;4.80;4.40;;;;;;;12.85;100.00;96725.53;5011145;28;20698;-61
2021/08/29 05:53:10;;;;;;;5.30;4.80;;;;;;;12.87;100.00;96722.66;5011837;28;20657;-62
2021/08/29 05:55:35;;;;;;;5.30;4.70;;;;;;;13.01;100.00;96721.28;5011057;28;20684;-64
2021/08/29 05:58:00;;;;;;;4.47;4.10;;;;;;;12.91;100.00;96731.66;5011820;28;20206;-61
2021/08/29 06:00:26;;;;;;;4.70;4.30;;;;;;;13.01;100.00;96733.63;5011701;28;20537;-61
2021/08/29 06:02:51;;;;;;;3.93;3.63;;;;;;;13.07;100.00;96735.28;5011026;28;20240;-61
2021/08/29 06:05:16;;;;;;;4.37;3.97;;;;;;;13.03;100.00;96735.00;5011597;28;20184;-61
2021/08/29 06:07:42;;;;;;;4.67;3.73;;;;;;;13.11;100.00;96731.91;5010723;28;20644;-61
2021/08/29 06:10:09;;;;;;;4.60;4.20;;;;;;;13.23;100.00;96737.09;5011515;28;20220;-60
2021/08/29 06:12:34;;;;;;;4.23;3.90;;;;;;;13.16;100.00;96731.22;5011132;28;20285;-68
2021/08/29 06:14:59;;;;;;;4.10;3.70;;;;;;;13.22;100.00;96731.03;5011224;28;20219;-60
2021/08/29 06:17:25;;;;;;;4.13;3.53;;;;;;;13.21;100.00;96728.66;5011860;28;20187;-60
2021/08/29 06:19:50;;;;;;;3.83;3.53;;;;;;;12.98;100.00;96716.50;5010824;28;20217;-60
2021/08/29 06:22:16;;;;;;;3.50;3.20;;;;;;;13.06;100.00;96729.22;5012548;28;20182;-61
2021/08/29 06:24:41;;;;;;;3.40;3.10;;;;;;;13.11;100.00;96739.81;5014690;28;20245;-61
2021/08/29 06:27:06;;;;;;;3.43;3.13;;;;;;;13.16;100.00;96739.91;5015312;28;20202;-60
2021/08/29 06:29:32;;;;;;;3.27;2.97;;;;;;;13.18;100.00;96724.69;5015552;28;20238;-65
2021/08/29 06:31:57;;;;;;;3.83;3.10;;;;;;;13.27;100.00;96731.09;5014694;28;20708;-62
2021/08/29 06:34:23;;;;;;;3.70;3.40;;;;;;;13.26;100.00;96724.25;5015133;28;20179;-62
2021/08/29 06:36:48;;;;;;;2.93;2.73;;;;;;;13.40;100.00;96722.06;5014505;28;20182;-62
2021/08/29 06:39:14;;;;;;;2.70;2.50;;;;;;;13.36;100.00;96715.69;5047081;28;20191;-62
2021/08/29 06:41:40;;;;;;;2.27;2.07;;;;;;;13.50;100.00;96713.47;5033145;28;20590;-62
2021/08/29 06:44:06;;;;;;;2.80;2.60;;;;;;;13.61;100.00;96715.16;5035244;28;20628;-62
2021/08/29 06:46:31;;;;;;;2.70;2.33;;;;;;;13.62;100.00;96706.22;5034697;28;20602;-62
2021/08/29 06:48:57;;;;;;;2.60;2.50;;;;;;;13.68;100.00;96700.78;5033966;28;20225;-62
2021/08/29 06:51:22;;;;;;;2.60;2.40;;;;;;;13.71;100.00;96707.38;5034771;28;20662;-62
2021/08/29 06:53:48;;;;;;;2.77;2.30;;;;;;;13.66;100.00;96708.13;5034100;28;20182;-64
2021/08/29 06:56:13;;;;;;;2.27;2.07;;;;;;;13.58;100.00;96705.94;5034718;28;20604;-56
2021/08/29 06:58:39;;;;;;;2.80;2.00;;;;;;;13.75;100.00;96705.84;5033951;28;20209;-58
2021/08/29 07:01:05;;;;;;;2.23;2.13;;;;;;;13.91;100.00;96719.97;5035542;28;20175;-58
2021/08/29 07:03:30;;;;;;;2.47;2.27;;;;;;;13.83;100.00;96709.84;5034581;28;20183;-58
2021/08/29 07:05:56;;;;;;;2.10;2.00;;;;;;;13.90;99.39;96721.00;5033268;28;20719;-62
2021/08/29 07:08:21;;;;;;;2.20;2.10;;;;;;;13.91;99.66;96718.13;5034005;28;20210;-59
2021/08/29 07:10:49;;;;;;;2.00;1.90;;;;;;;13.90;100.00;96716.53;5033660;28;20186;-58
2021/08/29 07:13:15;;;;;;;1.73;1.63;;;;;;;13.78;100.00;96721.16;5034195;28;20179;-60
2021/08/29 07:15:40;;;;;;;1.40;1.40;;;;;;;13.88;99.49;96710.69;5033353;28;20174;-60
2021/08/29 07:18:06;;;;;;;1.53;1.53;;;;;;;13.75;100.00;96708.47;5034448;28;20201;-59
2021/08/29 07:20:31;;;;;;;2.50;2.00;;;;;;;13.82;100.00;96710.94;5034424;28;20616;-60
2021/08/29 07:22:56;;;;;;;1.63;1.57;;;;;;;13.67;100.00;96706.28;5033165;28;20179;-60
2021/08/29 07:25:22;;;;;;;1.90;1.80;;;;;;;13.65;100.00;96705.75;5033831;28;20189;-60
2021/08/29 07:27:47;;;;;;;1.60;1.60;;;;;;;13.48;100.00;96713.72;5033617;28;20281;-59
2021/08/29 07:30:13;;;;;;;1.50;1.50;;;;;;;13.49;100.00;96701.34;5034204;28;20580;-60
2021/08/29 07:32:38;;;;;;;1.50;1.40;;;;;;;13.60;100.00;96698.56;5033678;28;20167;-70
2021/08/29 07:35:05;;;;;;;1.60;1.50;;;;;;;13.59;100.00;96699.63;5064847;28;20186;-60
2021/08/29 07:37:31;;;;;;;1.90;1.80;;;;;;;13.72;100.00;96699.22;5033565;28;20182;-60
2021/08/29 07:39:56;;;;;;;2.37;1.43;;;;;;;13.58;100.00;96699.88;5022680;28;20812;-60
2021/08/29 07:42:22;;;;;;;3.60;1.60;;;;;;;13.63;100.00;96694.66;5014164;28;20669;-59
2021/08/29 07:44:48;;;;;;;1.63;1.53;;;;;;;13.64;100.00;96701.53;5013116;28;20176;-60
2021/08/29 07:47:14;;;;;;;2.03;1.80;;;;;;;13.98;100.00;96694.22;5013807;28;20175;-58
2021/08/29 07:49:39;;;;;;;2.43;1.60;;;;;;;13.96;99.68;96697.09;5020349;28;20190;-63
2021/08/29 07:52:05;;;;;;;1.57;1.47;;;;;;;13.87;100.00;96695.16;5033031;28;20171;-61
2021/08/29 07:54:30;;;;;;;1.80;1.70;;;;;;;13.78;100.00;96699.28;5033198;28;20179;-60
2021/08/29 07:56:56;;;;;;;1.70;1.70;;;;;;;13.73;100.00;96702.66;5032521;28;20280;-60
2021/08/29 07:59:21;;;;;;;1.57;1.47;;;;;;;13.67;100.00;96706.28;5031735;28;20199;-60
2021/08/29 08:01:46;;;;;;;1.50;1.50;;;;;;;13.86;100.00;96706.75;5032491;28;20567;-60
2021/08/29 08:04:12;;;;;;;1.43;1.43;;;;;;;13.86;100.00;96707.53;5033520;28;20190;-60
2021/08/29 08:06:37;;;;;;;1.50;1.50;;;;;;;13.98;100.00;96710.03;5031192;28;20179;-69
2021/08/29 08:09:03;;;;;;;1.70;1.70;;;;;;;14.01;100.00;96710.31;5032539;28;20243;-61
2021/08/29 08:11:28;;;;;;;1.47;1.47;;;;;;;14.18;100.00;96710.19;5033234;28;20531;-60
2021/08/29 08:13:54;;;;;;;1.50;1.50;;;;;;;14.39;99.92;96711.19;5031259;28;20284;-60
2021/08/29 08:16:19;;;;;;;1.90;1.80;;;;;;;14.30;99.14;96716.09;5033152;28;20209;-60
2021/08/29 08:18:44;;;;;;;1.70;1.60;;;;;;;14.23;100.00;96709.44;5031568;28;20195;-60
2021/08/29 08:21:10;;;;;;;1.67;1.57;;;;;;;14.36;100.00;96707.19;5032744;28;20620;-61
2021/08/29 08:23:35;;;;;;;1.80;1.73;;;;;;;14.49;99.46;96711.25;5032967;28;20168;-64
2021/08/29 08:26:01;;;;;;;2.10;2.00;;;;;;;14.42;100.00;96719.41;5031987;28;20174;-60
2021/08/29 08:28:26;;;;;;;1.90;1.80;;;;;;;14.24;100.00;96716.31;5032813;28;20186;-60
2021/08/29 08:30:51;;;;;;;1.50;1.50;;;;;;;14.35;100.00;96715.34;5032082;28;20202;-60
2021/08/29 08:33:17;;;;;;;1.47;1.43;;;;;;;14.39;100.00;96708.53;5032793;28;20646;-61
2021/08/29 08:35:42;;;;;;;1.50;1.50;;;;;;;14.59;100.00;96705.28;5031440;28;20171;-61
2021/08/29 08:38:07;;;;;;;1.90;1.80;;;;;;;14.59;100.00;96711.34;5030435;28;20297;-62
2021/08/29 08:40:40;;;;;;;1.90;1.90;;;;;;;14.59;100.00;96705.28;5031078;28;20209;-60
2021/08/29 08:43:06;;;;;;;1.57;1.57;;;;;;;14.79;99.93;96710.66;5032707;28;20554;-60
2021/08/29 08:45:33;;;;;;;2.10;2.00;;;;;;;14.78;99.80;96714.34;5032168;28;20183;-61
2021/08/29 08:48:00;;;;;;;1.40;1.40;;;;;;;14.82;99.63;96707.53;5031453;28;20753;-61
2021/08/29 08:50:27;;;;;;;1.50;1.50;;;;;;;14.80;100.00;96705.16;5031941;28;20265;-61
2021/08/29 08:53:00;;;;;;;1.57;1.47;;;;;;;14.70;100.00;96701.66;5030080;28;20755;-60
2021/08/29 08:55:26;;;;;;;1.40;1.40;;;;;;;14.68;99.91;96698.47;5032397;28;20202;-60
2021/08/29 08:57:52;;;;;;;1.50;1.50;;;;;;;14.68;100.00;96709.00;5031198;28;20553;-60
2021/08/29 09:00:18;;;;;;;1.37;1.37;;;;;;;14.71;100.00;96704.00;5032618;28;20197;-61
2021/08/29 09:02:45;;;;;;;1.53;1.53;;;;;;;14.56;100.00;96696.81;5031841;28;20640;-61
2021/08/29 09:05:11;;;;;;;1.40;1.40;;;;;;;14.49;100.00;96698.06;5031967;28;20174;-61
2021/08/29 09:07:36;;;;;;;1.30;1.30;;;;;;;14.55;100.00;96707.59;5031818;28;20301;-60
2021/08/29 09:10:03;;;;;;;1.60;1.60;;;;;;;14.37;100.00;96708.81;5031346;28;20179;-61
2021/08/29 09:12:28;;;;;;;1.70;1.70;;;;;;;14.49;100.00;96704.13;5032013;28;20682;-60
2021/08/29 09:14:57;;;;;;;2.10;2.00;;;;;;;14.01;100.00;96701.59;5030663;28;20218;-61
2021/08/29 09:17:25;;;;;;;1.63;1.63;;;;;;;14.14;100.00;96704.63;5032064;28;20237;-60
2021/08/29 09:20:11;;;;;;;2.13;2.03;;;;;;;14.03;100.00;96704.81;5031221;28;20213;-60
2021/08/29 09:22:36;;;;;;;1.97;1.97;;;;;;;14.19;100.00;96703.88;5032004;28;20269;-60
2021/08/29 09:25:02;;;;;;;1.80;1.70;;;;;;;14.49;100.00;96708.63;5031312;28;20602;-60
2021/08/29 09:27:30;;;;;;;2.03;2.00;;;;;;;14.54;100.00;96703.41;5031882;28;20190;-59
2021/08/29 09:29:56;;;;;;;1.70;1.70;;;;;;;14.75;100.00;96712.25;5026614;28;20698;-61
2021/08/29 09:32:21;;;;;;;1.70;1.70;;;;;;;14.60;100.00;96705.00;5031556;28;20182;-60
2021/08/29 09:34:57;;;;;;;2.07;2.00;;;;;;;14.56;100.00;96707.34;5031262;28;20178;-61
2021/08/29 09:37:23;;;;;;;2.10;2.10;;;;;;;14.52;100.00;96703.66;5031291;28;20179;-61
2021/08/29 09:39:48;;;;;;;2.10;2.10;;;;;;;14.19;100.00;96703.88;5028175;28;20202;-61
2021/08/29 09:42:14;;;;;;;2.13;2.13;;;;;;;14.07;100.00;96704.03;5031267;28;20230;-60
2021/08/29 09:44:39;;;;;;;1.83;1.83;;;;;;;14.03;100.00;96702.16;5031332;28;20190;-73
2021/08/29 09:47:06;;;;;;;1.93;1.93;;;;;;;14.14;100.00;96709.91;5030419;28;20174;-63
2021/08/29 09:49:33;;;;;;;2.13;2.10;;;;;;;14.32;100.00;96707.94;5031242;28;20616;-60
2021/08/29 09:52:01;;;;;;;2.07;2.07;;;;;;;14.59;100.00;96713.19;5030030;28;20917;-60
2021/08/29 09:54:30;;;;;;;1.60;1.60;;;;;;;14.77;100.00;96715.41;5031080;28;20190;-61
2021/08/29 09:56:57;;;;;;;1.80;1.80;;;;;;;14.98;100.00;96709.22;5029876;28;20330;-59
2021/08/29 09:59:41;;;;;;;1.73;1.73;;;;;;;15.09;100.00;96702.94;5031431;28;20651;-61
2021/08/29 10:02:08;;;;;;;1.80;1.80;;;;;;;15.10;100.00;96707.13;5031325;28;20214;-62
2021/08/29 10:04:34;;;;;;;1.40;1.40;;;;;;;14.83;100.00;96704.63;5031219;28;20651;-60
2021/08/29 10:07:17;;;;;;;1.67;1.67;;;;;;;15.00;100.00;96707.09;5030283;28;20221;-60
2021/08/29 10:09:45;;;;;;;1.80;1.80;;;;;;;15.04;100.00;96708.19;5030541;28;20182;-69
2021/08/29 10:12:10;;;;;;;1.83;1.83;;;;;;;15.08;100.00;96706.63;5031635;28;20194;-61
2021/08/29 10:14:38;;;;;;;1.60;1.60;;;;;;;15.24;100.00;96710.13;5031146;28;20194;-61
2021/08/29 10:17:04;;;;;;;1.53;1.53;;;;;;;15.23;100.00;96709.31;5030378;28;20190;-60
2021/08/29 10:19:30;;;;;;;1.83;1.83;;;;;;;15.26;100.00;96708.03;5031440;28;20206;-60
2021/08/29 10:21:57;;;;;;;1.63;1.63;;;;;;;15.31;100.00;96702.75;5030895;28;20542;-60
2021/08/29 10:24:23;;;;;;;1.83;1.83;;;;;;;15.13;100.00;96704.00;5031379;28;20171;-60
2021/08/29 10:26:54;;;;;;;1.97;1.87;;;;;;;15.21;100.00;96692.16;5030471;28;20219;-61
2021/08/29 10:29:29;;;;;;;5.90;4.70;;;;;;;15.13;100.00;96704.00;5031283;28;20810;-61
2021/08/29 10:32:09;;;;;;;5.20;3.50;;;;;;;15.21;100.00;96700.09;5030352;28;20576;-60
2021/08/29 10:34:37;;;;;;;2.57;2.47;;;;;;;15.04;100.00;96702.13;5028470;28;20174;-60
2021/08/29 10:37:03;;;;;;;2.40;2.30;;;;;;;14.91;100.00;96708.63;5014318;28;20179;-60
2021/08/29 10:39:29;;;;;;;2.37;2.27;;;;;;;14.62;100.00;96700.28;5029085;28;20551;-61
2021/08/29 10:41:58;;;;;;;2.63;2.53;;;;;;;14.75;100.00;96702.47;5029927;28;20238;-60
2021/08/29 10:44:24;;;;;;;2.50;2.40;;;;;;;14.91;100.00;96704.16;5030590;28;20194;-61
2021/08/29 10:46:50;;;;;;;2.27;2.20;;;;;;;15.06;100.00;96702.63;5029357;28;20640;-61
2021/08/29 10:49:17;;;;;;;2.07;2.07;;;;;;;15.26;100.00;96698.25;5030383;28;20183;-62
2021/08/29 10:51:45;;;;;;;3.60;3.40;;;;;;;14.36;100.00;96695.84;5030342;28;20183;-71
2021/08/29 10:54:12;;;;;;;3.60;3.30;;;;;;;14.54;100.00;96701.53;5029931;28;20210;-61
2021/08/29 10:56:40;;;;;;;3.87;3.60;;;;;;;14.57;100.00;96695.75;5029629;28;20170;-60
2021/08/29 10:59:09;;;;;;;5.07;4.67;;;;;;;14.49;100.00;96698.06;5030418;28;20707;-61
2021/08/29 11:01:35;;;;;;;4.93;4.43;;;;;;;14.51;100.00;96690.69;5031107;28;20681;-61
2021/08/29 11:04:19;;;;;;;5.90;5.20;;;;;;;14.88;100.00;96694.09;5030154;28;20178;-61
2021/08/29 11:06:51;;;;;;;5.67;5.17;;;;;;;14.92;100.00;96692.56;5029230;28;20221;-71
2021/08/29 11:09:31;;;;;;;6.00;4.53;;;;;;;14.79;100.00;96693.00;5033209;28;20194;-61
2021/08/29 11:11:57;;;;;;;6.27;5.67;;;;;;;14.94;100.00;96695.72;5034046;28;20179;-61
2021/08/29 11:14:47;;;;;;;5.30;4.80;;;;;;;14.88;100.00;96695.94;5034556;28;20201;-61
2021/08/29 11:17:25;;;;;;;5.07;4.67;;;;;;;15.49;100.00;96694.34;5028651;28;20193;-62
2021/08/29 11:20:08;;;;;;;6.30;4.77;;;;;;;15.65;100.00;96688.13;5033233;28;20275;-61
2021/08/29 11:22:42;;;;;;;4.47;4.17;;;;;;;15.25;100.00;96687.94;5033957;28;20266;-62
2021/08/29 11:25:10;;;;;;;4.70;4.30;;;;;;;15.42;100.00;96680.63;5032150;28;20193;-63
2021/08/29 11:27:36;;;;;;;4.53;4.13;;;;;;;15.34;100.00;96691.66;5033758;28;20183;-61